sensor_id;sensor_type;location;lat;lon;timestamp;P1;durP1;ratioP1;P2;durP2;ratioP2
9294;SDS011;4686;44.496;11.324;2023-03-14T00:02:08;36.40;;;27.90;;
9294;SDS011;4686;44.496;11.324;2023-03-14T00:04:36;42.83;;;30.73;;
9294;SDS011;4686;44.496;11.324;2023-03-14T00:07:05;30.37;;;26.27;;
9294;SDS011;4686;44.496;11.324;2023-03-14T00:09:32;36.67;;;28.20;;
9294;SDS011;4686;44.496;11.324;2023-03-14T00:11:59;30.03;;;25.87;;
9294;SDS011;4686;44.496;11.324;2023-03-14T00:14:28;31.77;;;26.77;;
9294;SDS011;4686;44.496;11.324;2023-03-14T00:16:56;35.33;;;27.50;;
9294;SDS011;4686;44.496;11.324;2023-03-14T00:19:23;33.47;;;26.50;;
9294;SDS011;4686;44.496;11.324;2023-03-14T00:21:50;24.87;;;22.20;;
9294;SDS011;4686;44.496;11.324;2023-03-14T00:24:19;21.70;;;17.80;;
9294;SDS011;4686;44.496;11.324;2023-03-14T00:26:46;14.00;;;11.03;;
9294;SDS011;4686;44.496;11.324;2023-03-14T00:29:13;11.97;;;8.23;;
9294;SDS011;4686;44.496;11.324;2023-03-14T00:31:41;10.97;;;7.37;;
9294;SDS011;4686;44.496;11.324;2023-03-14T00:34:08;10.00;;;5.50;;
9294;SDS011;4686;44.496;11.324;2023-03-14T00:36:40;4.60;;;4.20;;
9294;SDS011;4686;44.496;11.324;2023-03-14T00:39:07;8.20;;;5.10;;
9294;SDS011;4686;44.496;11.324;2023-03-14T00:41:38;7.17;;;4.80;;
9294;SDS011;4686;44.496;11.324;2023-03-14T00:44:05;8.30;;;6.33;;
9294;SDS011;4686;44.496;11.324;2023-03-14T00:46:32;9.80;;;4.77;;
9294;SDS011;4686;44.496;11.324;2023-03-14T00:49:00;9.93;;;7.33;;
9294;SDS011;4686;44.496;11.324;2023-03-14T00:51:28;7.33;;;6.27;;
9294;SDS011;4686;44.496;11.324;2023-03-14T00:53:56;4.77;;;4.37;;
9294;SDS011;4686;44.496;11.324;2023-03-14T00:56:23;8.67;;;5.33;;
9294;SDS011;4686;44.496;11.324;2023-03-14T00:58:54;9.43;;;5.10;;
9294;SDS011;4686;44.496;11.324;2023-03-14T01:01:21;8.40;;;4.90;;
9294;SDS011;4686;44.496;11.324;2023-03-14T01:03:50;7.53;;;4.60;;
9294;SDS011;4686;44.496;11.324;2023-03-14T01:06:18;8.20;;;5.00;;
9294;SDS011;4686;44.496;11.324;2023-03-14T01:08:47;7.47;;;5.33;;
9294;SDS011;4686;44.496;11.324;2023-03-14T01:11:16;5.13;;;4.60;;
9294;SDS011;4686;44.496;11.324;2023-03-14T01:13:43;11.20;;;7.60;;
9294;SDS011;4686;44.496;11.324;2023-03-14T01:16:13;10.27;;;7.03;;
9294;SDS011;4686;44.496;11.324;2023-03-14T01:18:41;6.83;;;5.13;;
9294;SDS011;4686;44.496;11.324;2023-03-14T01:21:10;10.60;;;8.03;;
9294;SDS011;4686;44.496;11.324;2023-03-14T01:23:38;12.27;;;8.80;;
9294;SDS011;4686;44.496;11.324;2023-03-14T01:26:08;12.07;;;8.70;;
9294;SDS011;4686;44.496;11.324;2023-03-14T01:28:36;7.77;;;6.03;;
9294;SDS011;4686;44.496;11.324;2023-03-14T01:31:03;6.30;;;4.50;;
9294;SDS011;4686;44.496;11.324;2023-03-14T01:33:34;13.03;;;9.20;;
9294;SDS011;4686;44.496;11.324;2023-03-14T01:36:02;11.70;;;7.40;;
9294;SDS011;4686;44.496;11.324;2023-03-14T01:38:32;8.73;;;5.73;;
9294;SDS011;4686;44.496;11.324;2023-03-14T01:41:00;10.03;;;4.87;;
9294;SDS011;4686;44.496;11.324;2023-03-14T01:43:29;12.13;;;8.23;;
9294;SDS011;4686;44.496;11.324;2023-03-14T01:48:51;12.53;;;8.17;;
9294;SDS011;4686;44.496;11.324;2023-03-14T01:51:23;14.40;;;9.27;;
9294;SDS011;4686;44.496;11.324;2023-03-14T01:53:59;11.63;;;7.30;;
9294;SDS011;4686;44.496;11.324;2023-03-14T01:56:27;12.63;;;6.37;;
9294;SDS011;4686;44.496;11.324;2023-03-14T01:58:54;7.30;;;4.37;;
9294;SDS011;4686;44.496;11.324;2023-03-14T02:01:22;6.00;;;3.93;;
9294;SDS011;4686;44.496;11.324;2023-03-14T02:03:54;11.90;;;7.27;;
9294;SDS011;4686;44.496;11.324;2023-03-14T02:06:22;18.10;;;8.53;;
9294;SDS011;4686;44.496;11.324;2023-03-14T02:08:50;5.77;;;4.73;;
9294;SDS011;4686;44.496;11.324;2023-03-14T02:11:19;16.27;;;4.50;;
9294;SDS011;4686;44.496;11.324;2023-03-14T02:13:47;10.23;;;4.30;;
9294;SDS011;4686;44.496;11.324;2023-03-14T02:16:15;5.70;;;3.90;;
9294;SDS011;4686;44.496;11.324;2023-03-14T02:18:43;8.67;;;5.17;;
9294;SDS011;4686;44.496;11.324;2023-03-14T02:21:14;8.90;;;3.73;;
9294;SDS011;4686;44.496;11.324;2023-03-14T02:23:45;8.67;;;4.60;;
9294;SDS011;4686;44.496;11.324;2023-03-14T02:26:15;8.20;;;3.87;;
9294;SDS011;4686;44.496;11.324;2023-03-14T02:28:45;14.77;;;8.10;;
9294;SDS011;4686;44.496;11.324;2023-03-14T02:31:15;7.70;;;4.03;;
9294;SDS011;4686;44.496;11.324;2023-03-14T02:33:44;7.10;;;5.93;;
9294;SDS011;4686;44.496;11.324;2023-03-14T02:36:11;12.70;;;7.63;;
9294;SDS011;4686;44.496;11.324;2023-03-14T02:38:41;9.20;;;5.50;;
9294;SDS011;4686;44.496;11.324;2023-03-14T02:41:11;5.20;;;4.57;;
9294;SDS011;4686;44.496;11.324;2023-03-14T02:43:38;12.73;;;4.80;;
9294;SDS011;4686;44.496;11.324;2023-03-14T02:46:07;9.63;;;3.53;;
9294;SDS011;4686;44.496;11.324;2023-03-14T02:48:37;5.17;;;3.30;;
9294;SDS011;4686;44.496;11.324;2023-03-14T02:51:06;11.77;;;5.77;;
9294;SDS011;4686;44.496;11.324;2023-03-14T02:53:34;4.77;;;3.10;;
9294;SDS011;4686;44.496;11.324;2023-03-14T02:56:01;10.33;;;3.77;;
9294;SDS011;4686;44.496;11.324;2023-03-14T02:58:29;7.80;;;3.93;;
9294;SDS011;4686;44.496;11.324;2023-03-14T03:00:56;15.40;;;9.40;;
9294;SDS011;4686;44.496;11.324;2023-03-14T03:03:25;8.90;;;4.00;;
9294;SDS011;4686;44.496;11.324;2023-03-14T03:05:54;8.80;;;5.07;;
9294;SDS011;4686;44.496;11.324;2023-03-14T03:08:22;5.57;;;3.67;;
9294;SDS011;4686;44.496;11.324;2023-03-14T03:10:51;12.60;;;5.50;;
9294;SDS011;4686;44.496;11.324;2023-03-14T03:13:19;4.17;;;2.93;;
9294;SDS011;4686;44.496;11.324;2023-03-14T03:15:46;7.07;;;3.53;;
9294;SDS011;4686;44.496;11.324;2023-03-14T03:18:14;7.60;;;4.00;;
9294;SDS011;4686;44.496;11.324;2023-03-14T03:20:42;5.40;;;4.20;;
9294;SDS011;4686;44.496;11.324;2023-03-14T03:23:10;3.53;;;3.00;;
9294;SDS011;4686;44.496;11.324;2023-03-14T03:25:38;4.77;;;4.23;;
9294;SDS011;4686;44.496;11.324;2023-03-14T03:28:05;5.37;;;4.40;;
9294;SDS011;4686;44.496;11.324;2023-03-14T03:30:39;4.10;;;3.70;;
9294;SDS011;4686;44.496;11.324;2023-03-14T03:33:07;4.53;;;3.73;;
9294;SDS011;4686;44.496;11.324;2023-03-14T03:35:34;5.53;;;3.60;;
9294;SDS011;4686;44.496;11.324;2023-03-14T03:38:05;11.70;;;4.30;;
9294;SDS011;4686;44.496;11.324;2023-03-14T03:40:33;14.07;;;3.90;;
9294;SDS011;4686;44.496;11.324;2023-03-14T03:43:01;8.63;;;4.10;;
9294;SDS011;4686;44.496;11.324;2023-03-14T03:45:28;11.73;;;4.20;;
9294;SDS011;4686;44.496;11.324;2023-03-14T03:47:56;9.17;;;4.00;;
9294;SDS011;4686;44.496;11.324;2023-03-14T03:50:23;6.80;;;3.60;;
9294;SDS011;4686;44.496;11.324;2023-03-14T03:52:51;8.63;;;3.90;;
9294;SDS011;4686;44.496;11.324;2023-03-14T03:55:19;4.43;;;3.60;;
9294;SDS011;4686;44.496;11.324;2023-03-14T03:57:46;6.13;;;4.43;;
9294;SDS011;4686;44.496;11.324;2023-03-14T04:00:14;3.80;;;3.33;;
9294;SDS011;4686;44.496;11.324;2023-03-14T04:02:41;7.97;;;5.17;;
9294;SDS011;4686;44.496;11.324;2023-03-14T04:05:09;5.23;;;3.37;;
9294;SDS011;4686;44.496;11.324;2023-03-14T04:07:36;8.20;;;4.50;;
9294;SDS011;4686;44.496;11.324;2023-03-14T04:10:04;7.77;;;3.83;;
9294;SDS011;4686;44.496;11.324;2023-03-14T04:12:32;6.33;;;5.70;;
9294;SDS011;4686;44.496;11.324;2023-03-14T04:15:00;7.07;;;4.10;;
9294;SDS011;4686;44.496;11.324;2023-03-14T04:17:27;6.00;;;3.70;;
9294;SDS011;4686;44.496;11.324;2023-03-14T04:19:54;6.43;;;3.57;;
9294;SDS011;4686;44.496;11.324;2023-03-14T04:22:22;6.83;;;3.70;;
9294;SDS011;4686;44.496;11.324;2023-03-14T04:24:49;8.53;;;4.90;;
9294;SDS011;4686;44.496;11.324;2023-03-14T04:27:16;8.07;;;5.30;;
9294;SDS011;4686;44.496;11.324;2023-03-14T04:29:45;8.63;;;3.47;;
9294;SDS011;4686;44.496;11.324;2023-03-14T04:32:12;5.77;;;4.60;;
9294;SDS011;4686;44.496;11.324;2023-03-14T04:34:41;7.90;;;5.73;;
9294;SDS011;4686;44.496;11.324;2023-03-14T04:37:09;12.97;;;6.80;;
9294;SDS011;4686;44.496;11.324;2023-03-14T04:39:36;7.67;;;5.60;;
9294;SDS011;4686;44.496;11.324;2023-03-14T04:42:03;8.10;;;4.40;;
9294;SDS011;4686;44.496;11.324;2023-03-14T04:44:31;4.50;;;3.30;;
9294;SDS011;4686;44.496;11.324;2023-03-14T04:46:59;10.57;;;8.30;;
9294;SDS011;4686;44.496;11.324;2023-03-14T04:49:26;6.40;;;4.70;;
9294;SDS011;4686;44.496;11.324;2023-03-14T04:51:54;14.67;;;6.40;;
9294;SDS011;4686;44.496;11.324;2023-03-14T04:54:21;10.90;;;6.47;;
9294;SDS011;4686;44.496;11.324;2023-03-14T04:56:49;7.27;;;5.40;;
9294;SDS011;4686;44.496;11.324;2023-03-14T04:59:16;11.03;;;4.57;;
9294;SDS011;4686;44.496;11.324;2023-03-14T05:01:43;7.30;;;3.60;;
9294;SDS011;4686;44.496;11.324;2023-03-14T05:04:12;7.80;;;4.57;;
9294;SDS011;4686;44.496;11.324;2023-03-14T05:06:39;9.07;;;5.87;;
9294;SDS011;4686;44.496;11.324;2023-03-14T05:09:07;7.50;;;6.80;;
9294;SDS011;4686;44.496;11.324;2023-03-14T05:11:34;9.83;;;6.40;;
9294;SDS011;4686;44.496;11.324;2023-03-14T05:14:02;7.20;;;5.50;;
9294;SDS011;4686;44.496;11.324;2023-03-14T05:16:29;6.00;;;4.23;;
9294;SDS011;4686;44.496;11.324;2023-03-14T05:18:57;12.23;;;5.23;;
9294;SDS011;4686;44.496;11.324;2023-03-14T05:21:30;9.17;;;6.10;;
9294;SDS011;4686;44.496;11.324;2023-03-14T05:23:57;8.37;;;5.10;;
9294;SDS011;4686;44.496;11.324;2023-03-14T05:26:25;4.47;;;3.93;;
9294;SDS011;4686;44.496;11.324;2023-03-14T05:28:53;4.20;;;3.27;;
9294;SDS011;4686;44.496;11.324;2023-03-14T05:31:20;3.50;;;3.20;;
9294;SDS011;4686;44.496;11.324;2023-03-14T05:33:47;6.43;;;3.93;;
9294;SDS011;4686;44.496;11.324;2023-03-14T05:36:15;10.93;;;6.57;;
9294;SDS011;4686;44.496;11.324;2023-03-14T05:38:43;7.93;;;4.27;;
9294;SDS011;4686;44.496;11.324;2023-03-14T05:41:11;6.80;;;4.50;;
9294;SDS011;4686;44.496;11.324;2023-03-14T05:43:38;10.47;;;4.43;;
9294;SDS011;4686;44.496;11.324;2023-03-14T05:46:06;6.20;;;3.83;;
9294;SDS011;4686;44.496;11.324;2023-03-14T05:48:33;8.27;;;3.90;;
9294;SDS011;4686;44.496;11.324;2023-03-14T05:51:00;8.50;;;4.40;;
9294;SDS011;4686;44.496;11.324;2023-03-14T05:53:27;8.43;;;5.10;;
9294;SDS011;4686;44.496;11.324;2023-03-14T05:55:56;6.83;;;4.67;;
9294;SDS011;4686;44.496;11.324;2023-03-14T05:58:23;6.77;;;3.47;;
9294;SDS011;4686;44.496;11.324;2023-03-14T06:00:51;7.73;;;3.60;;
9294;SDS011;4686;44.496;11.324;2023-03-14T06:03:19;10.93;;;5.70;;
9294;SDS011;4686;44.496;11.324;2023-03-14T06:05:46;5.20;;;4.60;;
9294;SDS011;4686;44.496;11.324;2023-03-14T06:08:13;7.87;;;3.40;;
9294;SDS011;4686;44.496;11.324;2023-03-14T06:10:40;7.93;;;4.97;;
9294;SDS011;4686;44.496;11.324;2023-03-14T06:13:09;6.47;;;4.50;;
9294;SDS011;4686;44.496;11.324;2023-03-14T06:15:36;7.70;;;4.33;;
9294;SDS011;4686;44.496;11.324;2023-03-14T06:18:03;8.77;;;6.70;;
9294;SDS011;4686;44.496;11.324;2023-03-14T06:20:30;10.27;;;4.77;;
9294;SDS011;4686;44.496;11.324;2023-03-14T06:23:00;9.53;;;4.63;;
9294;SDS011;4686;44.496;11.324;2023-03-14T06:25:27;6.60;;;4.37;;
9294;SDS011;4686;44.496;11.324;2023-03-14T06:27:54;7.53;;;3.67;;
9294;SDS011;4686;44.496;11.324;2023-03-14T06:30:23;7.50;;;4.03;;
9294;SDS011;4686;44.496;11.324;2023-03-14T06:32:50;15.83;;;7.57;;
9294;SDS011;4686;44.496;11.324;2023-03-14T06:35:18;5.13;;;4.20;;
9294;SDS011;4686;44.496;11.324;2023-03-14T06:37:47;9.70;;;5.40;;
9294;SDS011;4686;44.496;11.324;2023-03-14T06:40:18;8.03;;;4.90;;
9294;SDS011;4686;44.496;11.324;2023-03-14T06:42:46;7.60;;;4.93;;
9294;SDS011;4686;44.496;11.324;2023-03-14T06:45:15;7.30;;;3.70;;
9294;SDS011;4686;44.496;11.324;2023-03-14T06:47:57;9.00;;;4.13;;
9294;SDS011;4686;44.496;11.324;2023-03-14T06:50:24;10.03;;;7.50;;
9294;SDS011;4686;44.496;11.324;2023-03-14T06:52:52;7.37;;;4.53;;
9294;SDS011;4686;44.496;11.324;2023-03-14T06:55:24;7.03;;;4.67;;
9294;SDS011;4686;44.496;11.324;2023-03-14T06:57:51;10.20;;;4.43;;
9294;SDS011;4686;44.496;11.324;2023-03-14T07:00:18;9.40;;;4.60;;
9294;SDS011;4686;44.496;11.324;2023-03-14T07:02:46;14.60;;;4.73;;
9294;SDS011;4686;44.496;11.324;2023-03-14T07:05:17;7.30;;;5.00;;
9294;SDS011;4686;44.496;11.324;2023-03-14T07:07:45;9.10;;;4.17;;
9294;SDS011;4686;44.496;11.324;2023-03-14T07:10:12;9.40;;;3.83;;
9294;SDS011;4686;44.496;11.324;2023-03-14T07:12:40;10.50;;;4.87;;
9294;SDS011;4686;44.496;11.324;2023-03-14T07:15:07;10.53;;;4.67;;
9294;SDS011;4686;44.496;11.324;2023-03-14T07:17:35;5.40;;;3.63;;
9294;SDS011;4686;44.496;11.324;2023-03-14T07:20:02;9.90;;;5.00;;
9294;SDS011;4686;44.496;11.324;2023-03-14T07:22:34;7.40;;;4.40;;
9294;SDS011;4686;44.496;11.324;2023-03-14T07:25:01;11.10;;;6.47;;
9294;SDS011;4686;44.496;11.324;2023-03-14T07:27:29;10.80;;;6.50;;
9294;SDS011;4686;44.496;11.324;2023-03-14T07:29:56;15.73;;;5.43;;
9294;SDS011;4686;44.496;11.324;2023-03-14T07:32:23;6.37;;;3.90;;
9294;SDS011;4686;44.496;11.324;2023-03-14T07:34:51;6.63;;;4.70;;
9294;SDS011;4686;44.496;11.324;2023-03-14T07:37:18;9.03;;;5.10;;
9294;SDS011;4686;44.496;11.324;2023-03-14T07:39:47;6.10;;;4.33;;
9294;SDS011;4686;44.496;11.324;2023-03-14T07:42:15;8.83;;;4.33;;
9294;SDS011;4686;44.496;11.324;2023-03-14T07:44:42;6.00;;;4.20;;
9294;SDS011;4686;44.496;11.324;2023-03-14T07:47:09;11.60;;;4.33;;
9294;SDS011;4686;44.496;11.324;2023-03-14T07:49:37;10.87;;;4.37;;
9294;SDS011;4686;44.496;11.324;2023-03-14T07:52:04;10.57;;;5.13;;
9294;SDS011;4686;44.496;11.324;2023-03-14T07:54:31;9.20;;;4.40;;
9294;SDS011;4686;44.496;11.324;2023-03-14T07:57:00;14.00;;;5.27;;
9294;SDS011;4686;44.496;11.324;2023-03-14T07:59:28;7.90;;;4.90;;
9294;SDS011;4686;44.496;11.324;2023-03-14T08:01:55;12.97;;;7.17;;
9294;SDS011;4686;44.496;11.324;2023-03-14T08:04:23;7.93;;;4.23;;
9294;SDS011;4686;44.496;11.324;2023-03-14T08:06:50;12.10;;;4.40;;
9294;SDS011;4686;44.496;11.324;2023-03-14T08:09:19;6.70;;;4.00;;
9294;SDS011;4686;44.496;11.324;2023-03-14T08:11:49;6.07;;;3.87;;
9294;SDS011;4686;44.496;11.324;2023-03-14T08:14:20;8.63;;;4.07;;
9294;SDS011;4686;44.496;11.324;2023-03-14T08:16:48;8.70;;;3.97;;
9294;SDS011;4686;44.496;11.324;2023-03-14T08:19:16;5.90;;;3.90;;
9294;SDS011;4686;44.496;11.324;2023-03-14T08:21:44;9.10;;;4.00;;
9294;SDS011;4686;44.496;11.324;2023-03-14T08:24:11;5.37;;;4.23;;
9294;SDS011;4686;44.496;11.324;2023-03-14T08:26:40;8.77;;;3.87;;
9294;SDS011;4686;44.496;11.324;2023-03-14T08:29:07;4.80;;;4.30;;
9294;SDS011;4686;44.496;11.324;2023-03-14T08:31:36;4.90;;;4.23;;
9294;SDS011;4686;44.496;11.324;2023-03-14T08:34:03;10.33;;;4.13;;
9294;SDS011;4686;44.496;11.324;2023-03-14T08:36:31;6.30;;;3.87;;
9294;SDS011;4686;44.496;11.324;2023-03-14T08:38:58;8.43;;;4.40;;
9294;SDS011;4686;44.496;11.324;2023-03-14T08:41:33;6.80;;;3.87;;
9294;SDS011;4686;44.496;11.324;2023-03-14T08:44:05;7.13;;;4.07;;
9294;SDS011;4686;44.496;11.324;2023-03-14T08:46:33;8.30;;;4.87;;
9294;SDS011;4686;44.496;11.324;2023-03-14T08:49:07;5.17;;;3.60;;
9294;SDS011;4686;44.496;11.324;2023-03-14T08:51:39;4.80;;;3.90;;
9294;SDS011;4686;44.496;11.324;2023-03-14T08:54:09;10.53;;;4.27;;
9294;SDS011;4686;44.496;11.324;2023-03-14T08:56:37;7.20;;;4.50;;
9294;SDS011;4686;44.496;11.324;2023-03-14T08:59:05;6.67;;;4.80;;
9294;SDS011;4686;44.496;11.324;2023-03-14T09:01:33;7.17;;;4.50;;
9294;SDS011;4686;44.496;11.324;2023-03-14T09:04:01;8.23;;;4.63;;
9294;SDS011;4686;44.496;11.324;2023-03-14T09:06:30;7.63;;;4.30;;
9294;SDS011;4686;44.496;11.324;2023-03-14T09:08:57;19.73;;;4.30;;
9294;SDS011;4686;44.496;11.324;2023-03-14T09:11:25;6.97;;;4.37;;
9294;SDS011;4686;44.496;11.324;2023-03-14T09:13:52;9.07;;;4.50;;
9294;SDS011;4686;44.496;11.324;2023-03-14T09:16:20;6.43;;;3.73;;
9294;SDS011;4686;44.496;11.324;2023-03-14T09:18:47;11.10;;;4.50;;
9294;SDS011;4686;44.496;11.324;2023-03-14T09:21:20;7.20;;;3.97;;
9294;SDS011;4686;44.496;11.324;2023-03-14T09:23:50;7.73;;;4.13;;
9294;SDS011;4686;44.496;11.324;2023-03-14T09:26:18;11.50;;;5.07;;
9294;SDS011;4686;44.496;11.324;2023-03-14T09:28:45;9.20;;;4.03;;
9294;SDS011;4686;44.496;11.324;2023-03-14T09:31:13;9.77;;;4.07;;
9294;SDS011;4686;44.496;11.324;2023-03-14T09:33:41;8.37;;;4.30;;
9294;SDS011;4686;44.496;11.324;2023-03-14T09:36:09;7.50;;;4.63;;
9294;SDS011;4686;44.496;11.324;2023-03-14T09:38:37;7.83;;;3.77;;
9294;SDS011;4686;44.496;11.324;2023-03-14T09:41:13;12.57;;;6.17;;
9294;SDS011;4686;44.496;11.324;2023-03-14T09:43:41;8.00;;;4.20;;
9294;SDS011;4686;44.496;11.324;2023-03-14T09:46:11;7.47;;;5.20;;
9294;SDS011;4686;44.496;11.324;2023-03-14T09:48:39;6.30;;;4.37;;
9294;SDS011;4686;44.496;11.324;2023-03-14T09:51:12;9.37;;;5.00;;
9294;SDS011;4686;44.496;11.324;2023-03-14T09:53:43;8.93;;;4.57;;
9294;SDS011;4686;44.496;11.324;2023-03-14T09:56:24;10.60;;;6.50;;
9294;SDS011;4686;44.496;11.324;2023-03-14T09:58:57;4.17;;;3.63;;
9294;SDS011;4686;44.496;11.324;2023-03-14T10:01:26;5.90;;;3.30;;
9294;SDS011;4686;44.496;11.324;2023-03-14T10:03:57;10.37;;;3.33;;
9294;SDS011;4686;44.496;11.324;2023-03-14T10:06:26;5.13;;;4.63;;
9294;SDS011;4686;44.496;11.324;2023-03-14T10:08:54;5.50;;;4.23;;
9294;SDS011;4686;44.496;11.324;2023-03-14T10:11:24;5.33;;;3.87;;
9294;SDS011;4686;44.496;11.324;2023-03-14T10:14:03;4.27;;;3.80;;
9294;SDS011;4686;44.496;11.324;2023-03-14T10:16:31;6.30;;;3.70;;
9294;SDS011;4686;44.496;11.324;2023-03-14T10:19:03;5.23;;;3.00;;
9294;SDS011;4686;44.496;11.324;2023-03-14T10:21:30;4.10;;;3.20;;
9294;SDS011;4686;44.496;11.324;2023-03-14T10:24:09;7.23;;;2.90;;
9294;SDS011;4686;44.496;11.324;2023-03-14T10:26:38;5.60;;;3.10;;
9294;SDS011;4686;44.496;11.324;2023-03-14T10:29:08;6.80;;;2.50;;
9294;SDS011;4686;44.496;11.324;2023-03-14T10:31:46;2.63;;;2.43;;
9294;SDS011;4686;44.496;11.324;2023-03-14T10:34:15;2.60;;;2.40;;
9294;SDS011;4686;44.496;11.324;2023-03-14T10:36:43;2.60;;;2.40;;
9294;SDS011;4686;44.496;11.324;2023-03-14T10:41:55;3.80;;;2.70;;
9294;SDS011;4686;44.496;11.324;2023-03-14T10:44:24;4.87;;;2.90;;
9294;SDS011;4686;44.496;11.324;2023-03-14T10:46:58;2.73;;;2.50;;
9294;SDS011;4686;44.496;11.324;2023-03-14T10:49:27;4.27;;;2.53;;
9294;SDS011;4686;44.496;11.324;2023-03-14T10:51:55;5.53;;;2.50;;
9294;SDS011;4686;44.496;11.324;2023-03-14T10:54:23;8.07;;;2.80;;
9294;SDS011;4686;44.496;11.324;2023-03-14T10:56:57;2.60;;;2.50;;
9294;SDS011;4686;44.496;11.324;2023-03-14T10:59:24;3.20;;;2.60;;
9294;SDS011;4686;44.496;11.324;2023-03-14T11:01:55;3.07;;;2.70;;
9294;SDS011;4686;44.496;11.324;2023-03-14T11:04:35;2.50;;;2.40;;
9294;SDS011;4686;44.496;11.324;2023-03-14T11:07:08;2.37;;;2.27;;
9294;SDS011;4686;44.496;11.324;2023-03-14T11:09:38;2.97;;;2.43;;
9294;SDS011;4686;44.496;11.324;2023-03-14T11:12:13;2.80;;;2.30;;
9294;SDS011;4686;44.496;11.324;2023-03-14T11:14:45;3.80;;;2.90;;
9294;SDS011;4686;44.496;11.324;2023-03-14T11:17:15;2.50;;;2.30;;
9294;SDS011;4686;44.496;11.324;2023-03-14T11:19:45;4.43;;;2.83;;
9294;SDS011;4686;44.496;11.324;2023-03-14T11:22:18;3.07;;;2.77;;
9294;SDS011;4686;44.496;11.324;2023-03-14T11:24:49;2.70;;;2.50;;
9294;SDS011;4686;44.496;11.324;2023-03-14T11:27:22;3.57;;;2.50;;
9294;SDS011;4686;44.496;11.324;2023-03-14T11:29:52;2.40;;;2.20;;
9294;SDS011;4686;44.496;11.324;2023-03-14T11:32:24;4.73;;;2.80;;
9294;SDS011;4686;44.496;11.324;2023-03-14T11:34:53;3.73;;;2.40;;
9294;SDS011;4686;44.496;11.324;2023-03-14T11:37:23;3.10;;;2.80;;
9294;SDS011;4686;44.496;11.324;2023-03-14T11:39:54;3.40;;;2.63;;
9294;SDS011;4686;44.496;11.324;2023-03-14T11:42:24;2.70;;;2.50;;
9294;SDS011;4686;44.496;11.324;2023-03-14T11:44:53;2.80;;;2.60;;
9294;SDS011;4686;44.496;11.324;2023-03-14T11:47:21;2.70;;;2.50;;
9294;SDS011;4686;44.496;11.324;2023-03-14T11:49:51;10.80;;;2.63;;
9294;SDS011;4686;44.496;11.324;2023-03-14T11:52:21;4.27;;;2.57;;
9294;SDS011;4686;44.496;11.324;2023-03-14T11:54:51;6.67;;;4.80;;
9294;SDS011;4686;44.496;11.324;2023-03-14T11:57:20;5.30;;;4.80;;
9294;SDS011;4686;44.496;11.324;2023-03-14T11:59:54;11.27;;;5.80;;
9294;SDS011;4686;44.496;11.324;2023-03-14T12:02:41;8.77;;;5.67;;
9294;SDS011;4686;44.496;11.324;2023-03-14T12:10:49;8.63;;;6.00;;
9294;SDS011;4686;44.496;11.324;2023-03-14T12:13:18;9.70;;;5.80;;
9294;SDS011;4686;44.496;11.324;2023-03-14T12:15:50;6.80;;;5.30;;
9294;SDS011;4686;44.496;11.324;2023-03-14T12:18:21;6.30;;;5.60;;
9294;SDS011;4686;44.496;11.324;2023-03-14T12:20:53;7.37;;;5.83;;
9294;SDS011;4686;44.496;11.324;2023-03-14T12:23:21;10.13;;;6.20;;
9294;SDS011;4686;44.496;11.324;2023-03-14T12:25:48;5.47;;;4.97;;
9294;SDS011;4686;44.496;11.324;2023-03-14T12:28:33;10.60;;;5.30;;
9294;SDS011;4686;44.496;11.324;2023-03-14T12:34:00;9.77;;;7.27;;
9294;SDS011;4686;44.496;11.324;2023-03-14T12:36:48;9.97;;;8.00;;
9294;SDS011;4686;44.496;11.324;2023-03-14T12:39:21;11.83;;;9.17;;
9294;SDS011;4686;44.496;11.324;2023-03-14T12:41:53;9.50;;;8.50;;
9294;SDS011;4686;44.496;11.324;2023-03-14T12:50:17;8.23;;;7.33;;
9294;SDS011;4686;44.496;11.324;2023-03-14T12:52:48;13.47;;;8.23;;
9294;SDS011;4686;44.496;11.324;2023-03-14T12:55:20;14.17;;;7.93;;
9294;SDS011;4686;44.496;11.324;2023-03-14T12:57:52;9.90;;;8.07;;
9294;SDS011;4686;44.496;11.324;2023-03-14T13:00:20;11.50;;;8.47;;
9294;SDS011;4686;44.496;11.324;2023-03-14T13:02:48;11.83;;;8.90;;
9294;SDS011;4686;44.496;11.324;2023-03-14T13:05:17;12.50;;;8.57;;
9294;SDS011;4686;44.496;11.324;2023-03-14T13:08:02;10.00;;;8.80;;
9294;SDS011;4686;44.496;11.324;2023-03-14T13:10:30;14.87;;;11.10;;
9294;SDS011;4686;44.496;11.324;2023-03-14T13:13:11;15.63;;;11.80;;
9294;SDS011;4686;44.496;11.324;2023-03-14T13:15:41;15.20;;;11.27;;
9294;SDS011;4686;44.496;11.324;2023-03-14T13:18:09;18.27;;;10.90;;
9294;SDS011;4686;44.496;11.324;2023-03-14T13:20:40;16.60;;;11.53;;
9294;SDS011;4686;44.496;11.324;2023-03-14T13:23:19;14.00;;;11.00;;
9294;SDS011;4686;44.496;11.324;2023-03-14T13:25:46;17.60;;;11.30;;
9294;SDS011;4686;44.496;11.324;2023-03-14T13:28:14;11.13;;;9.77;;
9294;SDS011;4686;44.496;11.324;2023-03-14T13:30:41;13.07;;;10.63;;
9294;SDS011;4686;44.496;11.324;2023-03-14T13:33:13;17.40;;;10.83;;
9294;SDS011;4686;44.496;11.324;2023-03-14T13:35:43;12.00;;;10.77;;
9294;SDS011;4686;44.496;11.324;2023-03-14T13:38:15;17.90;;;13.37;;
9294;SDS011;4686;44.496;11.324;2023-03-14T13:40:43;14.40;;;12.90;;
9294;SDS011;4686;44.496;11.324;2023-03-14T13:43:13;19.87;;;13.63;;
9294;SDS011;4686;44.496;11.324;2023-03-14T13:45:45;16.70;;;13.50;;
9294;SDS011;4686;44.496;11.324;2023-03-14T13:48:15;14.93;;;11.83;;
9294;SDS011;4686;44.496;11.324;2023-03-14T13:50:47;23.33;;;13.60;;
9294;SDS011;4686;44.496;11.324;2023-03-14T13:53:17;14.93;;;13.10;;
9294;SDS011;4686;44.496;11.324;2023-03-14T13:55:44;18.00;;;13.10;;
9294;SDS011;4686;44.496;11.324;2023-03-14T13:58:19;20.60;;;16.67;;
9294;SDS011;4686;44.496;11.324;2023-03-14T14:00:58;17.37;;;11.90;;
9294;SDS011;4686;44.496;11.324;2023-03-14T14:03:26;16.77;;;13.00;;
9294;SDS011;4686;44.496;11.324;2023-03-14T14:05:55;16.10;;;12.77;;
9294;SDS011;4686;44.496;11.324;2023-03-14T14:08:23;17.17;;;13.67;;
9294;SDS011;4686;44.496;11.324;2023-03-14T14:10:52;18.60;;;13.80;;
9294;SDS011;4686;44.496;11.324;2023-03-14T14:13:20;18.33;;;13.60;;
9294;SDS011;4686;44.496;11.324;2023-03-14T14:15:48;15.30;;;11.57;;
9294;SDS011;4686;44.496;11.324;2023-03-14T14:18:18;21.37;;;14.27;;
9294;SDS011;4686;44.496;11.324;2023-03-14T14:21:01;19.10;;;12.73;;
9294;SDS011;4686;44.496;11.324;2023-03-14T14:23:29;17.73;;;13.53;;
9294;SDS011;4686;44.496;11.324;2023-03-14T14:25:57;19.43;;;14.03;;
9294;SDS011;4686;44.496;11.324;2023-03-14T14:28:25;16.27;;;12.23;;
9294;SDS011;4686;44.496;11.324;2023-03-14T14:31:03;15.00;;;11.40;;
9294;SDS011;4686;44.496;11.324;2023-03-14T14:33:37;20.73;;;13.90;;
9294;SDS011;4686;44.496;11.324;2023-03-14T14:36:11;15.37;;;12.23;;
9294;SDS011;4686;44.496;11.324;2023-03-14T14:38:40;16.83;;;13.40;;
9294;SDS011;4686;44.496;11.324;2023-03-14T14:41:10;15.60;;;12.03;;
9294;SDS011;4686;44.496;11.324;2023-03-14T14:43:38;19.30;;;12.50;;
9294;SDS011;4686;44.496;11.324;2023-03-14T14:46:06;17.13;;;12.57;;
9294;SDS011;4686;44.496;11.324;2023-03-14T14:48:35;17.07;;;12.80;;
9294;SDS011;4686;44.496;11.324;2023-03-14T14:51:07;15.83;;;12.40;;
9294;SDS011;4686;44.496;11.324;2023-03-14T14:53:36;15.23;;;11.87;;
9294;SDS011;4686;44.496;11.324;2023-03-14T14:56:06;14.00;;;11.73;;
9294;SDS011;4686;44.496;11.324;2023-03-14T14:58:35;15.17;;;11.10;;
9294;SDS011;4686;44.496;11.324;2023-03-14T15:01:03;18.03;;;13.03;;
9294;SDS011;4686;44.496;11.324;2023-03-14T15:03:32;20.47;;;13.40;;
9294;SDS011;4686;44.496;11.324;2023-03-14T15:05:59;17.93;;;11.43;;
9294;SDS011;4686;44.496;11.324;2023-03-14T15:08:27;25.30;;;11.57;;
9294;SDS011;4686;44.496;11.324;2023-03-14T15:10:55;16.93;;;11.23;;
9294;SDS011;4686;44.496;11.324;2023-03-14T15:13:22;11.90;;;8.87;;
9294;SDS011;4686;44.496;11.324;2023-03-14T15:15:50;16.43;;;9.53;;
9294;SDS011;4686;44.496;11.324;2023-03-14T15:18:21;10.30;;;7.77;;
9294;SDS011;4686;44.496;11.324;2023-03-14T15:20:48;8.73;;;7.93;;
9294;SDS011;4686;44.496;11.324;2023-03-14T15:23:19;8.40;;;7.50;;
9294;SDS011;4686;44.496;11.324;2023-03-14T15:25:47;13.10;;;8.70;;